createdAt,value
2018-12-03T00:01:30.420Z,9.20
2018-12-03T00:04:06.510Z,9.20
2018-12-03T00:06:35.288Z,9.20
2018-12-03T00:09:04.616Z,9.20
2018-12-03T00:11:33.304Z,9.00
2018-12-03T00:14:01.840Z,9.10
2018-12-03T00:16:30.332Z,9.10
2018-12-03T00:18:58.943Z,9.00
2018-12-03T00:21:28.125Z,9.00
2018-12-03T00:23:56.683Z,9.00
2018-12-03T00:26:25.859Z,9.00
2018-12-03T00:28:54.456Z,9.00
2018-12-03T00:31:23.027Z,9.10
2018-12-03T00:33:51.716Z,9.10
2018-12-03T00:36:20.428Z,9.00
2018-12-03T00:38:48.970Z,9.00
2018-12-03T00:41:17.726Z,9.00
2018-12-03T00:43:46.463Z,9.00
2018-12-03T00:46:14.916Z,9.00
2018-12-03T00:48:43.441Z,9.00
2018-12-03T00:51:11.912Z,9.00
2018-12-03T00:53:40.427Z,9.00
2018-12-03T00:56:08.890Z,9.00
2018-12-03T00:58:37.384Z,9.00
2018-12-03T01:01:05.990Z,9.00
2018-12-03T01:03:34.459Z,8.90
2018-12-03T01:06:02.895Z,8.90
2018-12-03T01:08:31.404Z,8.90
2018-12-03T01:10:59.911Z,8.90
2018-12-03T01:13:28.411Z,8.90
2018-12-03T01:15:56.865Z,8.90
2018-12-03T01:18:25.335Z,8.90
2018-12-03T01:20:53.808Z,8.80
2018-12-03T01:23:22.238Z,8.80
2018-12-03T01:25:50.679Z,8.80
2018-12-03T01:28:19.131Z,8.80
2018-12-03T01:30:47.600Z,8.80
2018-12-03T01:33:16.064Z,8.70
2018-12-03T01:35:44.548Z,8.80
2018-12-03T01:38:13.031Z,8.70
2018-12-03T01:40:41.484Z,8.70
2018-12-03T01:43:09.983Z,8.80
2018-12-03T01:45:38.430Z,8.80
2018-12-03T01:48:06.871Z,8.80
2018-12-03T01:50:35.327Z,8.80
2018-12-03T01:53:03.844Z,8.70
2018-12-03T01:55:32.307Z,8.80
2018-12-03T01:58:00.759Z,8.70
2018-12-03T02:00:29.343Z,8.70
2018-12-03T02:02:57.804Z,8.80
2018-12-03T02:05:26.271Z,8.80
2018-12-03T02:07:54.734Z,8.80
2018-12-03T02:10:23.200Z,8.80
2018-12-03T02:12:51.660Z,8.80
2018-12-03T02:15:20.175Z,8.80
2018-12-03T02:17:48.716Z,8.70
2018-12-03T02:20:17.911Z,8.70
2018-12-03T02:22:46.352Z,8.70
2018-12-03T02:25:14.914Z,8.60
2018-12-03T02:27:43.336Z,8.60
2018-12-03T02:30:16.321Z,8.80
2018-12-03T02:32:44.866Z,8.80
2018-12-03T02:35:14.179Z,8.80
2018-12-03T02:37:42.643Z,8.80
2018-12-03T02:40:15.156Z,8.90
2018-12-03T02:42:43.626Z,8.90
2018-12-03T02:45:13.136Z,9.00
2018-12-03T02:47:41.590Z,9.10
2018-12-03T02:50:12.222Z,9.20
2018-12-03T02:52:40.991Z,9.20
2018-12-03T02:55:10.551Z,9.30
2018-12-03T02:57:39.126Z,9.30
2018-12-03T03:00:13.382Z,9.30
2018-12-03T03:02:42.523Z,9.30
2018-12-03T03:05:12.338Z,9.30
2018-12-03T03:07:40.785Z,9.30
2018-12-03T03:10:12.484Z,9.20
2018-12-03T03:12:40.947Z,9.20
2018-12-03T03:15:10.654Z,9.20
2018-12-03T03:17:39.391Z,9.20
2018-12-03T03:20:11.119Z,9.10
2018-12-03T03:22:39.819Z,9.20
2018-12-03T03:25:09.935Z,9.20
2018-12-03T03:27:38.897Z,9.20
2018-12-03T03:30:12.223Z,9.20
2018-12-03T03:32:41.530Z,9.20
2018-12-03T03:35:11.536Z,9.20
2018-12-03T03:37:40.019Z,9.20
2018-12-03T03:40:14.805Z,9.10
2018-12-03T03:42:44.970Z,9.10
2018-12-03T03:45:22.518Z,9.10
2018-12-03T03:47:51.095Z,9.20
2018-12-03T03:50:19.607Z,9.20
2018-12-03T03:52:48.044Z,9.20
2018-12-03T03:55:16.529Z,9.20
2018-12-03T03:57:45.019Z,9.20
2018-12-03T04:00:14.666Z,9.20
2018-12-03T04:02:43.252Z,9.20
2018-12-03T04:05:13.051Z,9.30
2018-12-03T04:07:42.445Z,9.30
2018-12-03T04:10:12.827Z,9.30
2018-12-03T04:12:42.083Z,9.30
2018-12-03T04:15:12.875Z,9.30
2018-12-03T04:17:41.342Z,9.30
2018-12-03T04:20:13.163Z,9.30
2018-12-03T04:22:41.659Z,9.30
2018-12-03T04:25:11.219Z,9.30
2018-12-03T04:27:39.664Z,9.10
2018-12-03T04:30:12.135Z,9.10
2018-12-03T04:32:41.016Z,9.20
2018-12-03T04:35:10.419Z,9.10
2018-12-03T04:37:38.931Z,9.10
2018-12-03T04:40:10.729Z,9.10
2018-12-03T04:42:39.173Z,9.00
2018-12-03T04:45:10.202Z,9.00
2018-12-03T04:47:38.643Z,9.00
2018-12-03T04:50:10.408Z,9.00
2018-12-03T04:52:38.880Z,8.90
2018-12-03T04:55:07.381Z,8.90
2018-12-03T04:57:35.914Z,8.90
2018-12-03T05:00:07.215Z,8.90
2018-12-03T05:02:35.675Z,8.90
2018-12-03T05:05:04.167Z,8.90
2018-12-03T05:07:32.657Z,8.90
2018-12-03T05:10:01.101Z,8.90
2018-12-03T05:12:29.594Z,8.80
2018-12-03T05:14:58.050Z,8.80
2018-12-03T05:17:26.529Z,8.80
2018-12-03T05:19:55.024Z,8.80
2018-12-03T05:22:23.583Z,8.80
2018-12-03T05:24:52.144Z,8.70
2018-12-03T05:27:20.602Z,8.80
2018-12-03T05:29:49.097Z,8.80
2018-12-03T05:32:17.600Z,8.80
2018-12-03T05:34:46.093Z,8.80
2018-12-03T05:37:14.535Z,8.90
2018-12-03T05:39:42.974Z,8.90
2018-12-03T05:42:11.425Z,8.90
2018-12-03T05:44:39.871Z,8.90
2018-12-03T05:47:08.307Z,9.00
2018-12-03T05:49:36.803Z,9.00
2018-12-03T05:52:05.279Z,9.00
2018-12-03T05:54:33.717Z,9.00
2018-12-03T05:57:02.222Z,9.00
2018-12-03T05:59:30.720Z,9.00
2018-12-03T06:01:59.208Z,9.00
2018-12-03T06:04:27.699Z,9.10
2018-12-03T06:06:56.149Z,9.10
2018-12-03T06:09:24.646Z,9.10
2018-12-03T06:11:53.097Z,9.10
2018-12-03T06:14:21.591Z,9.20
2018-12-03T06:16:50.015Z,9.20
2018-12-03T06:19:18.485Z,9.10
2018-12-03T06:21:46.995Z,9.10
2018-12-03T06:24:15.486Z,9.10
2018-12-03T06:26:43.934Z,9.10
2018-12-03T06:29:12.426Z,9.10
2018-12-03T06:31:40.916Z,9.10
2018-12-03T06:34:09.402Z,9.10
2018-12-03T06:36:37.980Z,9.10
2018-12-03T06:39:09.599Z,9.10
2018-12-03T06:41:38.260Z,9.10
2018-12-03T06:44:08.443Z,9.10
2018-12-03T06:46:37.630Z,9.10
2018-12-03T06:49:06.651Z,9.20
2018-12-03T06:51:35.283Z,9.20
2018-12-03T06:54:04.066Z,9.20
2018-12-03T06:56:32.804Z,9.30
2018-12-03T06:59:01.543Z,9.20
2018-12-03T07:01:30.256Z,9.20
2018-12-03T07:03:58.995Z,9.10
2018-12-03T07:06:27.748Z,9.20
2018-12-03T07:08:56.565Z,9.10
2018-12-03T07:11:25.343Z,9.10
2018-12-03T07:13:54.100Z,9.20
2018-12-03T07:16:22.938Z,9.10
2018-12-03T07:18:51.809Z,9.20
2018-12-03T07:21:21.147Z,9.30
2018-12-03T07:23:50.036Z,9.30
2018-12-03T07:26:18.853Z,9.40
2018-12-03T07:28:47.508Z,9.40
2018-12-03T07:31:16.147Z,9.50
2018-12-03T07:33:44.772Z,9.50
2018-12-03T07:36:13.518Z,9.50
2018-12-03T07:38:42.175Z,9.50
2018-12-03T07:41:10.826Z,9.50
2018-12-03T07:43:39.480Z,9.60
2018-12-03T07:46:08.103Z,9.60
2018-12-03T07:48:36.810Z,9.70
2018-12-03T07:51:06.102Z,9.70
2018-12-03T07:53:34.805Z,9.70
2018-12-03T07:56:03.323Z,9.70
2018-12-03T07:58:31.876Z,9.80
2018-12-03T08:01:00.612Z,9.80
2018-12-03T08:03:29.401Z,9.90
2018-12-03T08:05:58.085Z,9.90
2018-12-03T08:08:26.791Z,9.90
2018-12-03T08:10:57.926Z,9.90
2018-12-03T08:13:26.782Z,9.90
2018-12-03T08:15:55.596Z,10.00
2018-12-03T08:18:25.714Z,10.10
2018-12-03T08:20:56.976Z,10.10
2018-12-03T08:23:29.973Z,10.10
2018-12-03T08:25:59.058Z,10.20
2018-12-03T08:28:27.744Z,10.30
2018-12-03T08:30:56.524Z,10.30
2018-12-03T08:33:25.383Z,10.30
2018-12-03T08:35:54.215Z,10.40
2018-12-03T08:38:22.941Z,10.40
2018-12-03T08:40:51.575Z,10.50
2018-12-03T08:43:20.245Z,10.60
2018-12-03T08:45:48.960Z,10.70
2018-12-03T08:48:17.591Z,10.90
2018-12-03T08:50:49.658Z,10.90
2018-12-03T08:53:20.376Z,11.10
2018-12-03T08:55:49.008Z,11.20
2018-12-03T08:58:17.761Z,11.40
2018-12-03T09:00:47.740Z,11.50
2018-12-03T09:03:30.744Z,11.40
2018-12-03T09:06:04.419Z,11.40
2018-12-03T09:08:33.218Z,11.50
2018-12-03T09:11:02.076Z,11.60
2018-12-03T09:13:30.660Z,11.60
2018-12-03T09:16:01.968Z,11.40
2018-12-03T09:18:35.068Z,11.40
2018-12-03T09:21:08.712Z,11.50
2018-12-03T09:23:37.444Z,11.50
2018-12-03T09:26:07.191Z,11.60
2018-12-03T09:28:36.219Z,11.50
2018-12-03T09:31:05.969Z,11.50
2018-12-03T09:33:34.579Z,11.70
2018-12-03T09:36:03.119Z,11.70
2018-12-03T09:38:37.990Z,11.70
2018-12-03T09:41:06.456Z,11.90
2018-12-03T09:43:34.931Z,12.00
2018-12-03T09:46:03.451Z,12.10
2018-12-03T09:48:31.945Z,12.10
2018-12-03T09:51:00.529Z,12.20
2018-12-03T09:53:29.064Z,12.10
2018-12-03T09:55:57.797Z,12.20
2018-12-03T09:58:26.394Z,12.10
2018-12-03T10:00:54.851Z,12.30
2018-12-03T10:03:27.161Z,12.50
2018-12-03T10:05:58.760Z,12.80
2018-12-03T10:08:30.851Z,12.90
2018-12-03T10:11:01.334Z,13.00
2018-12-03T10:13:30.992Z,13.20
2018-12-03T10:15:59.455Z,13.50
2018-12-03T10:18:27.900Z,13.60
2018-12-03T10:20:57.994Z,13.60
2018-12-03T10:23:26.609Z,13.20
2018-12-03T10:25:56.979Z,13.40
2018-12-03T10:28:26.837Z,13.50
2018-12-03T10:30:57.300Z,13.50
2018-12-03T10:33:28.864Z,13.60
2018-12-03T10:35:58.675Z,13.60
2018-12-03T10:38:28.979Z,13.60
2018-12-03T10:41:09.919Z,13.70
2018-12-03T10:43:38.963Z,13.60
2018-12-03T10:46:09.130Z,13.60
2018-12-03T10:48:37.746Z,13.60
2018-12-03T10:51:11.823Z,13.70
2018-12-03T10:53:40.575Z,13.80
2018-12-03T10:56:09.416Z,13.90
2018-12-03T10:58:40.783Z,13.80
2018-12-03T11:01:15.130Z,13.90
2018-12-03T11:04:46.962Z,14.30
2018-12-03T11:07:16.031Z,14.30
2018-12-03T11:09:44.928Z,14.70
2018-12-03T11:12:13.580Z,15.00
2018-12-03T11:14:42.152Z,15.10
2018-12-03T11:17:10.832Z,14.80
2018-12-03T11:19:39.638Z,15.10
2018-12-03T11:22:08.373Z,15.40
2018-12-03T11:24:37.068Z,15.40
2018-12-03T11:27:06.333Z,15.70
2018-12-03T11:29:40.742Z,15.80
2018-12-03T11:32:09.441Z,15.90
2018-12-03T11:34:38.396Z,16.10
2018-12-03T11:37:12.579Z,15.90
2018-12-03T11:39:49.933Z,15.70
2018-12-03T11:42:18.645Z,15.50
2018-12-03T11:44:47.249Z,15.70
2018-12-03T11:47:15.888Z,15.80
2018-12-03T11:49:44.535Z,15.80
2018-12-03T11:52:13.182Z,15.80
2018-12-03T11:54:41.953Z,15.50
2018-12-03T11:57:10.638Z,15.70
2018-12-03T11:59:39.368Z,15.90
2018-12-03T12:02:07.898Z,15.60
2018-12-03T12:04:36.461Z,15.80
2018-12-03T12:07:05.240Z,16.00
2018-12-03T12:09:33.769Z,16.00
2018-12-03T12:12:02.565Z,16.00
2018-12-03T12:14:31.417Z,16.00
2018-12-03T12:17:00.165Z,15.90
2018-12-03T12:19:28.776Z,16.00
2018-12-03T12:21:57.453Z,15.50
2018-12-03T12:24:26.955Z,15.80
2018-12-03T12:26:56.817Z,16.00
2018-12-03T12:29:25.439Z,16.10
2018-12-03T12:31:54.079Z,15.70
2018-12-03T12:34:22.781Z,16.00
2018-12-03T12:36:51.356Z,16.10
2018-12-03T12:39:19.976Z,16.20
2018-12-03T12:41:48.598Z,16.40
2018-12-03T12:44:17.213Z,16.00
2018-12-03T12:46:48.095Z,16.40
2018-12-03T12:49:16.746Z,16.70
2018-12-03T12:51:45.316Z,16.50
2018-12-03T12:54:13.883Z,16.60
2018-12-03T12:56:42.518Z,16.40
2018-12-03T12:59:11.164Z,16.60
2018-12-03T13:01:39.801Z,16.50
2018-12-03T13:04:08.559Z,16.60
2018-12-03T13:06:37.356Z,16.40
2018-12-03T13:09:09.172Z,16.30
2018-12-03T13:11:38.353Z,16.10
2018-12-03T13:14:08.948Z,15.90
2018-12-03T13:16:37.703Z,15.40
2018-12-03T13:19:08.078Z,15.70
2018-12-03T13:21:36.768Z,16.00
2018-12-03T13:24:06.103Z,15.90
2018-12-03T13:26:37.154Z,15.90
2018-12-03T13:29:06.953Z,15.90
2018-12-03T13:31:35.555Z,15.60
2018-12-03T13:34:04.468Z,15.70
2018-12-03T13:36:32.975Z,15.40
2018-12-03T13:39:01.766Z,15.20
2018-12-03T13:41:30.732Z,14.90
2018-12-03T13:43:59.725Z,14.90
2018-12-03T13:46:28.477Z,14.70
2018-12-03T13:48:57.181Z,14.80
2018-12-03T13:51:25.883Z,14.60
2018-12-03T13:53:54.526Z,14.60
2018-12-03T13:56:23.222Z,14.40
2018-12-03T13:58:51.844Z,14.50
2018-12-03T14:01:20.878Z,14.50
2018-12-03T14:03:49.674Z,14.50
2018-12-03T14:06:22.857Z,14.30
2018-12-03T14:09:04.132Z,14.30
2018-12-03T14:11:54.491Z,14.20
2018-12-03T14:16:43.967Z,14.30
2018-12-03T14:19:16.561Z,14.40
2018-12-03T14:22:20.367Z,14.40
2018-12-03T14:24:49.095Z,14.40
2018-12-03T14:27:17.758Z,14.30
2018-12-03T14:29:46.533Z,14.20
2018-12-03T14:35:25.744Z,14.20
2018-12-03T14:37:54.606Z,14.00
2018-12-03T14:40:23.740Z,13.90
2018-12-03T14:42:52.467Z,13.90
2018-12-03T14:45:21.217Z,13.90
2018-12-03T14:47:50.027Z,13.80
2018-12-03T14:50:18.773Z,13.80
2018-12-03T14:52:47.620Z,13.70
2018-12-03T14:55:16.635Z,13.60
2018-12-03T14:57:45.398Z,13.60
2018-12-03T15:00:15.323Z,13.50
2018-12-03T15:02:44.792Z,13.50
2018-12-03T15:05:13.448Z,13.50
2018-12-03T15:07:42.091Z,13.50
2018-12-03T15:10:10.856Z,13.50
2018-12-03T15:12:39.551Z,13.50
2018-12-03T15:15:10.130Z,13.60
2018-12-03T15:17:40.355Z,13.60
2018-12-03T15:20:09.252Z,13.60
2018-12-03T15:22:37.739Z,13.60
2018-12-03T15:25:08.799Z,13.70
2018-12-03T15:27:37.255Z,13.60
2018-12-03T15:30:07.091Z,13.60
2018-12-03T15:32:35.543Z,13.60
2018-12-03T15:35:04.787Z,13.60
2018-12-03T15:37:33.399Z,13.50
2018-12-03T15:40:01.846Z,13.40
2018-12-03T15:42:30.318Z,13.30
2018-12-03T15:44:58.795Z,13.40
2018-12-03T15:47:28.126Z,13.40
2018-12-03T15:49:56.715Z,13.30
2018-12-03T15:52:25.155Z,13.30
2018-12-03T15:54:53.570Z,13.30
2018-12-03T15:57:22.012Z,13.30
2018-12-03T15:59:50.424Z,13.30
2018-12-03T16:02:18.864Z,13.20
2018-12-03T16:04:47.278Z,13.20
2018-12-03T16:07:15.720Z,13.20
2018-12-03T16:09:44.169Z,13.10
2018-12-03T16:12:12.632Z,13.00
2018-12-03T16:14:41.091Z,13.00
2018-12-03T16:17:09.551Z,13.00
2018-12-03T16:19:38.014Z,12.90
2018-12-03T16:22:06.471Z,12.90
2018-12-03T16:24:34.927Z,12.90
2018-12-03T16:27:03.379Z,12.90
2018-12-03T16:29:32.034Z,12.90
2018-12-03T16:32:00.547Z,12.90
2018-12-03T16:34:29.004Z,12.80
2018-12-03T16:36:57.465Z,12.80
2018-12-03T16:39:25.897Z,12.70
2018-12-03T16:41:54.430Z,12.70
2018-12-03T16:44:22.859Z,12.90
2018-12-03T16:46:51.310Z,12.90
2018-12-03T16:49:19.767Z,13.10
2018-12-03T16:51:48.888Z,12.90
2018-12-03T16:54:17.396Z,13.00
2018-12-03T16:56:45.868Z,13.10
2018-12-03T16:59:14.336Z,13.00
2018-12-03T17:01:42.832Z,13.10
2018-12-03T17:04:11.333Z,13.20
2018-12-03T17:06:40.647Z,13.20
2018-12-03T17:09:10.256Z,13.10
2018-12-03T17:11:39.520Z,13.30
2018-12-03T17:14:07.963Z,13.20
2018-12-03T17:16:36.544Z,13.20
2018-12-03T17:19:04.971Z,13.20
2018-12-03T17:21:40.615Z,13.10
2018-12-03T17:24:16.272Z,13.10
2018-12-03T17:26:44.712Z,13.00
2018-12-03T17:29:13.263Z,13.00
2018-12-03T17:31:41.783Z,13.00
2018-12-03T17:34:10.207Z,13.00
2018-12-03T17:36:38.687Z,12.90
2018-12-03T17:39:08.328Z,12.90
2018-12-03T17:41:36.889Z,12.90
2018-12-03T17:44:06.250Z,12.70
2018-12-03T17:46:34.714Z,12.60
2018-12-03T17:49:03.204Z,12.60
2018-12-03T17:51:31.640Z,12.50
2018-12-03T17:54:00.089Z,12.50
2018-12-03T17:56:28.559Z,12.40
2018-12-03T17:58:57.031Z,12.50
2018-12-03T18:01:25.513Z,12.40
2018-12-03T18:03:53.955Z,12.20
2018-12-03T18:06:22.480Z,12.20
2018-12-03T18:08:50.913Z,12.10
2018-12-03T18:11:19.394Z,12.10
2018-12-03T18:13:48.092Z,12.10
2018-12-03T18:16:16.771Z,12.00
2018-12-03T18:18:45.292Z,11.90
2018-12-03T18:21:13.776Z,11.90
2018-12-03T18:23:42.457Z,11.80
2018-12-03T18:26:10.908Z,11.80
2018-12-03T18:28:39.419Z,11.70
2018-12-03T18:31:07.902Z,11.70
2018-12-03T18:33:36.352Z,11.60
2018-12-03T18:36:04.859Z,11.60
2018-12-03T18:38:33.337Z,11.60
2018-12-03T18:41:03.438Z,11.60
2018-12-03T18:43:32.703Z,11.60
2018-12-03T18:46:01.160Z,11.60
2018-12-03T18:48:30.135Z,11.60
2018-12-03T18:50:58.627Z,11.60
2018-12-03T18:53:28.529Z,11.60
2018-12-03T18:55:57.005Z,11.50
2018-12-03T18:58:32.333Z,11.50
2018-12-03T19:01:01.032Z,11.50
2018-12-03T19:03:29.502Z,11.50
2018-12-03T19:05:58.192Z,11.50
2018-12-03T19:08:26.791Z,11.50
2018-12-03T19:10:55.267Z,11.50
2018-12-03T19:13:23.887Z,11.50
2018-12-03T19:15:52.376Z,11.40
2018-12-03T19:18:20.812Z,11.30
2018-12-03T19:20:49.254Z,11.30
2018-12-03T19:23:17.771Z,11.20
2018-12-03T19:25:46.255Z,11.30
2018-12-03T19:28:14.693Z,11.10
2018-12-03T19:30:43.140Z,11.20
2018-12-03T19:33:11.652Z,11.20
2018-12-03T19:35:40.163Z,11.20
2018-12-03T19:38:08.632Z,11.10
2018-12-03T19:40:37.130Z,11.10
2018-12-03T19:43:05.663Z,11.00
2018-12-03T19:45:34.135Z,11.00
2018-12-03T19:48:02.583Z,10.90
2018-12-03T19:50:31.073Z,10.90
2018-12-03T19:52:59.761Z,10.90
2018-12-03T19:55:29.242Z,11.00
2018-12-03T19:58:08.470Z,11.00
2018-12-03T20:00:37.113Z,10.80
2018-12-03T20:03:05.649Z,10.80
2018-12-03T20:05:34.279Z,10.80
2018-12-03T20:08:02.742Z,10.80
2018-12-03T20:10:31.560Z,10.70
2018-12-03T20:13:00.039Z,10.80
2018-12-03T20:15:28.507Z,10.80
2018-12-03T20:17:57.018Z,10.80
2018-12-03T20:20:33.036Z,10.80
2018-12-03T20:23:05.178Z,10.80
2018-12-03T20:25:41.211Z,10.80
2018-12-03T20:28:14.404Z,11.00
2018-12-03T20:33:03.216Z,11.00
2018-12-03T20:35:46.681Z,11.10
2018-12-03T20:38:23.115Z,11.10
2018-12-03T20:41:09.981Z,11.00
2018-12-03T20:43:39.739Z,11.10
2018-12-03T20:46:14.835Z,11.00
2018-12-03T20:48:53.483Z,11.00
2018-12-03T20:51:33.925Z,11.00
2018-12-03T20:54:02.427Z,11.00
2018-12-03T20:56:30.905Z,10.90
2018-12-03T20:58:59.643Z,10.90
2018-12-03T21:01:28.692Z,10.90
2018-12-03T21:03:57.434Z,10.90
2018-12-03T21:06:25.936Z,10.90
2018-12-03T21:08:54.379Z,10.80
2018-12-03T21:11:22.855Z,11.10
2018-12-03T21:13:51.353Z,11.10
2018-12-03T21:16:19.818Z,11.10
2018-12-03T21:18:48.286Z,11.10
2018-12-03T21:21:16.855Z,11.30
2018-12-03T21:23:45.983Z,11.40
2018-12-03T21:26:14.403Z,11.30
2018-12-03T21:28:42.867Z,11.30
2018-12-03T21:31:11.332Z,11.30
2018-12-03T21:33:39.813Z,11.30
2018-12-03T21:36:08.283Z,11.30
2018-12-03T21:38:36.710Z,11.20
2018-12-03T21:41:05.163Z,11.30
2018-12-03T21:43:33.606Z,11.30
2018-12-03T21:46:02.055Z,11.20
2018-12-03T21:48:30.479Z,11.20
2018-12-03T21:50:58.974Z,11.20
2018-12-03T21:53:27.700Z,11.10
2018-12-03T21:55:56.199Z,11.10
2018-12-03T21:58:24.619Z,11.10
2018-12-03T22:00:53.123Z,11.10
2018-12-03T22:03:21.579Z,11.10
2018-12-03T22:05:50.060Z,11.00
2018-12-03T22:08:18.511Z,10.90
2018-12-03T22:10:46.959Z,11.00
2018-12-03T22:13:15.371Z,10.90
2018-12-03T22:15:43.855Z,10.90
2018-12-03T22:18:12.291Z,10.80
2018-12-03T22:20:40.784Z,10.90
2018-12-03T22:23:09.333Z,10.80
2018-12-03T22:25:37.769Z,10.80
2018-12-03T22:28:06.201Z,10.80
2018-12-03T22:30:34.636Z,10.80
2018-12-03T22:33:03.100Z,10.90
2018-12-03T22:35:31.539Z,10.80
2018-12-03T22:37:59.965Z,10.80
2018-12-03T22:40:28.439Z,10.70
2018-12-03T22:42:56.888Z,10.80
2018-12-03T22:45:25.383Z,10.80
2018-12-03T22:47:53.829Z,10.70
2018-12-03T22:50:22.280Z,10.70
2018-12-03T22:52:50.719Z,10.70
2018-12-03T22:55:19.161Z,10.60
2018-12-03T23:00:38.219Z,10.70
2018-12-03T23:03:07.543Z,10.80
2018-12-03T23:05:36.014Z,10.80
2018-12-03T23:08:04.476Z,10.80
2018-12-03T23:10:32.923Z,10.90
2018-12-03T23:13:01.344Z,10.90
2018-12-03T23:15:29.805Z,10.90
2018-12-03T23:17:58.251Z,10.80
2018-12-03T23:20:26.688Z,10.80
2018-12-03T23:22:55.133Z,10.70
2018-12-03T23:25:23.728Z,10.80
2018-12-03T23:27:52.146Z,10.80
2018-12-03T23:30:20.565Z,10.80
2018-12-03T23:32:48.987Z,10.70
2018-12-03T23:35:17.427Z,10.60
2018-12-03T23:37:45.871Z,10.60
2018-12-03T23:40:14.322Z,10.60
2018-12-03T23:42:42.777Z,10.60
2018-12-03T23:45:11.224Z,10.50
2018-12-03T23:47:39.630Z,10.50
2018-12-03T23:50:08.071Z,10.50
2018-12-03T23:52:36.523Z,10.50
2018-12-03T23:55:04.983Z,10.40
2018-12-03T23:57:33.423Z,10.40
